Time;durP1;ratioP1;P1;durP2;ratioP2;P2;SDS_P1;SDS_P2;PMS_P1;PMS_P2;Temp;Humidity;BMP_temperature;BMP_pressure;BME280_temperature;BME280_humidity;BME280_pressure;Samples;Min_cycle;Max_cycle;Signal;HPM_P1;HPM_P2
2022/10/10 00:01:36;;;;;;;4.93;2.60;;;;;;;8.40;100.00;101578.25;4882629;29;20220;-78
2022/10/10 00:04:05;;;;;;;8.75;3.13;;;;;;;8.36;100.00;101572.03;4897759;29;20043;-79
2022/10/10 00:06:33;;;;;;;6.18;3.17;;;;;;;8.34;100.00;101576.38;4908753;29;20048;-77
2022/10/10 00:09:03;;;;;;;4.82;2.88;;;;;;;8.34;100.00;101560.63;4903984;29;20158;-77
2022/10/10 00:11:33;;;;;;;4.53;2.83;;;;;;;8.32;100.00;101569.31;4877728;29;20122;-77
2022/10/10 00:14:01;;;;;;;7.47;3.35;;;;;;;8.32;100.00;101566.69;4906901;29;20429;-77
2022/10/10 00:16:29;;;;;;;5.30;3.40;;;;;;;8.30;100.00;101566.66;4908764;29;20230;-77
2022/10/10 00:18:58;;;;;;;3.72;2.97;;;;;;;8.31;100.00;101554.41;4894114;29;20039;-77
2022/10/10 00:21:26;;;;;;;8.45;3.00;;;;;;;8.31;100.00;101551.78;4907122;29;20060;-77
2022/10/10 00:23:54;;;;;;;3.20;2.90;;;;;;;8.28;100.00;101555.22;4904521;29;20421;-77
2022/10/10 00:26:23;;;;;;;4.30;2.67;;;;;;;8.29;100.00;101553.47;4891744;29;20687;-77
2022/10/10 00:28:51;;;;;;;3.85;2.88;;;;;;;8.27;100.00;101545.56;4862969;29;20048;-77
2022/10/10 00:31:20;;;;;;;4.72;3.15;;;;;;;8.28;100.00;101538.56;4884845;29;20048;-76
2022/10/10 00:33:49;;;;;;;4.60;3.25;;;;;;;8.26;100.00;101543.78;4909087;29;20060;-77
2022/10/10 00:36:19;;;;;;;7.07;3.20;;;;;;;8.25;100.00;101536.75;4906088;29;20568;-77
2022/10/10 00:38:47;;;;;;;5.75;3.13;;;;;;;8.25;100.00;101534.13;4920427;29;20052;-77
2022/10/10 00:41:16;;;;;;;6.93;3.42;;;;;;;8.24;100.00;101521.88;4890641;29;20429;-77
2022/10/10 00:44:00;;;;;;;4.60;3.05;;;;;;;8.24;100.00;101523.59;4878617;29;20493;-77
2022/10/10 00:46:29;;;;;;;5.05;3.13;;;;;;;8.23;100.00;101517.44;4920054;29;20241;-77
2022/10/10 00:48:57;;;;;;;5.47;3.03;;;;;;;8.23;100.00;101506.94;4909119;29;20056;-77
2022/10/10 00:51:26;;;;;;;3.63;2.72;;;;;;;8.24;100.00;101510.47;4891858;29;20604;-77
2022/10/10 00:53:58;;;;;;;2.90;2.60;;;;;;;8.23;100.00;101506.94;4908879;29;20043;-77
2022/10/10 00:56:32;;;;;;;7.38;2.70;;;;;;;8.24;100.00;101507.84;4903664;29;20591;-78
2022/10/10 00:59:04;;;;;;;8.93;3.25;;;;;;;8.24;100.00;101502.59;4877251;29;20054;-77
2022/10/10 01:01:32;;;;;;;5.75;2.60;;;;;;;8.22;100.00;101494.66;4920681;29;20062;-77
2022/10/10 01:04:03;;;;;;;4.50;2.88;;;;;;;8.23;100.00;101499.06;4908702;29;20054;-77
2022/10/10 01:06:33;;;;;;;4.55;3.10;;;;;;;8.23;100.00;101503.44;4892258;29;20051;-77
2022/10/10 01:09:01;;;;;;;2.77;2.27;;;;;;;8.21;100.00;101498.16;4891154;29;20079;-77
2022/10/10 01:11:45;;;;;;;3.40;2.85;;;;;;;8.20;100.00;101499.91;4890157;29;20043;-77
2022/10/10 01:14:17;;;;;;;5.78;2.92;;;;;;;8.18;100.00;101493.72;4892587;29;20215;-77
2022/10/10 01:16:51;;;;;;;5.18;2.97;;;;;;;8.16;100.00;101490.16;4887242;29;20059;-77
2022/10/10 01:19:23;;;;;;;5.53;3.10;;;;;;;8.15;100.00;101490.16;4923387;29;20051;-77
2022/10/10 01:22:09;;;;;;;6.10;2.80;;;;;;;8.12;100.00;101476.94;4927485;29;20052;-77
2022/10/10 01:24:51;;;;;;;4.80;2.78;;;;;;;8.11;100.00;101473.44;4909939;29;20386;-78
2022/10/10 01:27:32;;;;;;;5.80;3.40;;;;;;;8.08;100.00;101470.72;4902942;29;20031;-77
2022/10/10 01:30:15;;;;;;;7.18;3.58;;;;;;;8.05;100.00;101481.13;4861112;29;20051;-77
2022/10/10 01:32:49;;;;;;;5.65;3.03;;;;;;;8.03;100.00;101474.09;4909045;29;20057;-77
2022/10/10 01:35:25;;;;;;;6.18;3.17;;;;;;;8.01;100.00;101468.81;4924332;29;20463;-77
2022/10/10 01:37:59;;;;;;;6.47;3.58;;;;;;;7.99;100.00;101470.50;4911478;29;20055;-77
2022/10/10 01:40:49;;;;;;;3.63;3.03;;;;;;;7.96;100.00;101470.44;4928561;29;20703;-77
2022/10/10 01:43:18;;;;;;;5.25;3.22;;;;;;;7.95;100.00;101473.91;4919798;29;20277;-77
2022/10/10 01:45:49;;;;;;;5.50;3.17;;;;;;;7.93;100.00;101467.75;4880123;29;20048;-77
2022/10/10 01:48:22;;;;;;;5.75;3.40;;;;;;;7.91;100.00;101458.94;4917932;29;20528;-77
2022/10/10 01:50:56;;;;;;;5.30;3.47;;;;;;;7.88;100.00;101459.78;4927920;29;20043;-77
2022/10/10 01:53:53;;;;;;;5.97;3.13;;;;;;;7.86;100.00;101464.06;4926923;29;20237;-77
2022/10/10 01:56:30;;;;;;;5.43;2.95;;;;;;;7.84;100.00;101459.66;4924500;29;20788;-78
2022/10/10 01:59:01;;;;;;;5.63;3.28;;;;;;;7.80;100.00;101464.81;4930199;29;20047;-77
2022/10/10 02:01:43;;;;;;;5.47;3.33;;;;;;;7.77;100.00;101458.63;4890056;29;20039;-77
2022/10/10 02:04:33;;;;;;;7.10;3.08;;;;;;;7.74;100.00;101459.41;4923582;29;20158;-77
2022/10/10 02:07:09;;;;;;;6.25;3.22;;;;;;;7.72;100.00;101450.63;4927126;29;20528;-77
2022/10/10 02:09:41;;;;;;;3.45;3.13;;;;;;;7.71;100.00;101445.34;4927568;29;20043;-77
2022/10/10 02:12:13;;;;;;;8.07;3.28;;;;;;;7.68;100.00;101443.53;4920189;29;20494;-77
2022/10/10 02:14:45;;;;;;;3.95;3.50;;;;;;;7.66;100.00;101440.00;4942421;29;20039;-77
2022/10/10 02:17:14;;;;;;;6.47;3.00;;;;;;;7.62;100.00;101438.16;4890135;29;20082;-77
2022/10/10 02:19:52;;;;;;;8.85;3.67;;;;;;;7.60;100.00;101438.09;4926751;29;20046;-77
2022/10/10 02:22:22;;;;;;;5.95;3.83;;;;;;;7.59;100.00;101432.81;4924386;29;20158;-77
2022/10/10 02:24:52;;;;;;;3.70;3.40;;;;;;;7.56;100.00;101428.38;4927543;29;20055;-77
2022/10/10 02:27:27;;;;;;;4.57;3.15;;;;;;;7.54;100.00;101423.94;4925437;29;20261;-77
2022/10/10 02:29:57;;;;;;;5.68;3.75;;;;;;;7.52;100.00;101421.25;4922283;29;20056;-78
2022/10/10 02:32:38;;;;;;;6.93;3.30;;;;;;;7.53;100.00;101419.56;4895528;29;20267;-78
2022/10/10 02:35:12;;;;;;;5.88;3.70;;;;;;;7.51;100.00;101419.50;4924929;29;20074;-78
2022/10/10 02:37:42;;;;;;;7.22;3.80;;;;;;;7.51;100.00;101413.38;4916685;29;20051;-78
2022/10/10 02:40:19;;;;;;;5.57;3.70;;;;;;;7.49;100.00;101412.47;4938516;28;20429;-77
2022/10/10 02:42:49;;;;;;;5.13;3.33;;;;;;;7.49;100.00;101409.84;4928069;29;20059;-76
2022/10/10 02:45:24;;;;;;;4.53;3.40;;;;;;;7.48;100.00;101410.69;4919100;29;20153;-76
2022/10/10 02:47:53;;;;;;;5.03;3.88;;;;;;;7.48;100.00;101406.31;4924692;29;20052;-77
2022/10/10 02:50:21;;;;;;;5.45;3.45;;;;;;;7.47;100.00;101412.41;4851644;29;20391;-77
2022/10/10 02:52:50;;;;;;;5.20;3.58;;;;;;;7.46;100.00;101404.50;4912017;29;20513;-77
2022/10/10 02:55:19;;;;;;;3.95;3.20;;;;;;;7.45;100.00;101403.63;4922269;29;20154;-77
2022/10/10 02:57:47;;;;;;;5.80;3.38;;;;;;;7.45;100.00;101401.00;4926106;29;20055;-77
2022/10/10 03:00:17;;;;;;;5.60;3.28;;;;;;;7.44;100.00;101391.34;4901352;29;20044;-76
2022/10/10 03:02:45;;;;;;;4.20;3.50;;;;;;;7.45;100.00;101397.47;4927230;29;20055;-78
2022/10/10 03:05:14;;;;;;;5.78;3.80;;;;;;;7.44;100.00;101385.22;4889713;29;20250;-77
2022/10/10 03:07:42;;;;;;;5.93;3.50;;;;;;;7.41;100.00;101379.06;4929328;29;20039;-77
2022/10/10 03:10:11;;;;;;;5.38;3.08;;;;;;;7.42;100.00;101385.19;4922657;29;20059;-78
2022/10/10 03:12:39;;;;;;;7.65;3.97;;;;;;;7.40;100.00;101385.16;4911136;29;20053;-77
2022/10/10 03:15:08;;;;;;;7.13;3.13;;;;;;;7.39;100.00;101380.78;4918376;29;20509;-77
2022/10/10 03:17:39;;;;;;;6.78;3.38;;;;;;;7.38;100.00;101376.34;4911872;29;20044;-77
2022/10/10 03:20:08;;;;;;;6.05;3.60;;;;;;;7.37;100.00;101373.69;4891640;29;20062;-77
2022/10/10 03:22:37;;;;;;;5.20;3.50;;;;;;;7.35;100.00;101376.31;4927481;29;20506;-77
2022/10/10 03:25:06;;;;;;;7.00;3.72;;;;;;;7.35;100.00;101380.63;4924157;29;20048;-77
2022/10/10 03:27:35;;;;;;;4.95;3.40;;;;;;;7.34;100.00;101371.00;4911039;29;20044;-77
2022/10/10 03:30:04;;;;;;;4.30;3.47;;;;;;;7.32;100.00;101384.09;4906860;29;20393;-76
2022/10/10 03:32:33;;;;;;;5.50;3.58;;;;;;;7.32;100.00;101385.81;4908779;29;20047;-77
2022/10/10 03:35:01;;;;;;;6.07;3.72;;;;;;;7.30;100.00;101383.16;4908720;29;20460;-77
2022/10/10 03:37:29;;;;;;;6.03;4.88;;;;;;;7.30;100.00;101380.53;4912417;29;20453;-77
2022/10/10 03:39:58;;;;;;;8.10;5.20;;;;;;;7.29;100.00;101376.13;4924303;29;20052;-77
2022/10/10 03:42:26;;;;;;;9.07;4.18;;;;;;;7.28;100.00;101381.31;4925335;29;20368;-76
2022/10/10 03:44:54;;;;;;;5.20;4.50;;;;;;;7.27;100.00;101377.81;4910476;29;20055;-77
2022/10/10 03:47:23;;;;;;;4.85;4.38;;;;;;;7.26;100.00;101373.44;4921967;29;20044;-77
2022/10/10 03:49:51;;;;;;;4.97;3.40;;;;;;;7.25;100.00;101370.78;4927768;29;20390;-77
2022/10/10 03:52:20;;;;;;;4.38;3.92;;;;;;;7.25;100.00;101373.41;4893798;29;20040;-77
2022/10/10 03:54:49;;;;;;;6.85;4.30;;;;;;;7.23;100.00;101369.00;4925730;29;20043;-77
2022/10/10 03:57:17;;;;;;;5.30;4.32;;;;;;;7.22;100.00;101363.72;4905834;29;20601;-77
2022/10/10 03:59:45;;;;;;;6.45;4.28;;;;;;;7.21;100.00;101356.72;4911379;29;20052;-77
2022/10/10 04:02:14;;;;;;;5.60;3.70;;;;;;;7.19;100.00;101363.66;4900632;29;20264;-77
2022/10/10 04:04:42;;;;;;;7.53;4.82;;;;;;;7.17;100.00;101360.97;4893658;29;20062;-77
2022/10/10 04:07:10;;;;;;;6.70;4.32;;;;;;;7.16;100.00;101366.19;4866476;29;20500;-77
2022/10/10 04:09:39;;;;;;;6.57;4.43;;;;;;;7.14;100.00;101355.66;4924842;29;20043;-77
2022/10/10 04:12:08;;;;;;;5.65;4.60;;;;;;;7.10;100.00;101352.94;4906926;29;20055;-77
2022/10/10 04:14:37;;;;;;;10.32;4.13;;;;;;;7.10;100.00;101352.94;4909754;29;20050;-77
2022/10/10 04:17:05;;;;;;;4.82;4.00;;;;;;;7.10;100.00;101347.69;4905654;29;20043;-77
2022/10/10 04:19:33;;;;;;;6.15;4.20;;;;;;;7.10;100.00;101345.06;4925424;29;20471;-77
2022/10/10 04:22:02;;;;;;;5.60;4.60;;;;;;;7.07;100.00;101348.50;4855032;29;20040;-77
2022/10/10 04:24:34;;;;;;;5.85;3.83;;;;;;;7.08;100.00;101349.38;4893530;29;20056;-77
2022/10/10 04:27:03;;;;;;;5.75;4.22;;;;;;;7.05;100.00;101342.34;4923874;29;20043;-77
2022/10/10 04:29:31;;;;;;;5.05;4.53;;;;;;;7.05;100.00;101350.22;4924820;29;20044;-77
2022/10/10 04:32:00;;;;;;;7.10;4.97;;;;;;;7.02;100.00;101348.38;4926408;29;20055;-78
2022/10/10 04:34:29;;;;;;;4.72;4.30;;;;;;;7.01;100.00;101349.22;4903263;29;20223;-77
2022/10/10 04:36:57;;;;;;;5.60;4.43;;;;;;;7.01;100.00;101338.75;4885067;29;20039;-77
2022/10/10 04:39:26;;;;;;;6.05;5.20;;;;;;;7.00;100.00;101334.34;4888834;29;20035;-77
2022/10/10 04:41:55;;;;;;;7.85;5.40;;;;;;;6.98;100.00;101338.66;4909923;29;20062;-77
2022/10/10 04:44:24;;;;;;;6.40;4.47;;;;;;;6.96;100.00;101340.38;4925529;29;20048;-77
2022/10/10 04:46:52;;;;;;;5.18;4.28;;;;;;;6.95;100.00;101337.69;4926502;29;20604;-77
2022/10/10 04:49:20;;;;;;;14.57;4.68;;;;;;;6.94;100.00;101339.44;4902897;29;20509;-77
2022/10/10 04:51:49;;;;;;;7.28;4.18;;;;;;;6.93;100.00;101332.41;4892795;29;20059;-77
2022/10/10 04:54:17;;;;;;;11.18;4.82;;;;;;;6.93;100.00;101327.16;4899610;29;20040;-77
2022/10/10 04:56:46;;;;;;;6.60;4.50;;;;;;;6.90;100.00;101323.56;4922445;29;20568;-78
2022/10/10 04:59:14;;;;;;;18.50;11.23;;;;;;;6.89;100.00;101327.94;4904462;29;20497;-77
2022/10/10 05:01:42;;;;;;;6.68;5.68;;;;;;;6.89;100.00;101329.69;4882476;29;20766;-77
2022/10/10 05:04:12;;;;;;;6.78;4.40;;;;;;;6.85;100.00;101319.97;4921728;29;20392;-77
2022/10/10 05:06:40;;;;;;;5.68;4.75;;;;;;;6.83;100.00;101314.69;4925028;29;20052;-77
2022/10/10 05:09:09;;;;;;;6.53;4.85;;;;;;;6.80;100.00;101320.72;4875686;29;20047;-77
2022/10/10 05:11:37;;;;;;;6.32;4.30;;;;;;;6.79;100.00;101318.09;4895397;29;20541;-77
2022/10/10 05:14:06;;;;;;;10.52;4.97;;;;;;;6.77;100.00;101314.53;4923731;29;20386;-77
2022/10/10 05:16:34;;;;;;;8.00;4.75;;;;;;;6.74;100.00;101315.31;4923140;29;20196;-77
2022/10/10 05:19:03;;;;;;;6.60;5.07;;;;;;;6.73;100.00;101316.19;4885515;29;20036;-78
2022/10/10 05:21:31;;;;;;;8.30;4.70;;;;;;;6.73;100.00;101323.13;4908222;29;20037;-77
2022/10/10 05:24:00;;;;;;;9.85;5.07;;;;;;;6.72;100.00;101321.38;4901417;28;20068;-77
2022/10/10 05:26:29;;;;;;;8.20;5.10;;;;;;;6.72;100.00;101310.91;4913824;28;20413;-77
2022/10/10 05:28:57;;;;;;;7.60;4.68;;;;;;;6.71;100.00;101320.50;4917962;29;20387;-78
2022/10/10 05:31:27;;;;;;;9.00;4.97;;;;;;;6.71;100.00;101316.97;4925049;29;20048;-77
2022/10/10 05:33:56;;;;;;;7.72;4.70;;;;;;;6.72;100.00;101318.75;4912929;29;20059;-78
2022/10/10 05:36:25;;;;;;;5.82;5.07;;;;;;;6.71;100.00;101315.28;4874559;29;20047;-77
2022/10/10 05:38:53;;;;;;;9.65;4.93;;;;;;;6.73;100.00;101299.56;4894335;29;20052;-77
2022/10/10 05:41:22;;;;;;;7.88;5.57;;;;;;;6.72;100.00;101301.31;4925886;29;20044;-77
2022/10/10 05:43:50;;;;;;;10.57;4.65;;;;;;;6.73;100.00;101295.25;4924439;29;20044;-77
2022/10/10 05:46:21;;;;;;;8.13;5.00;;;;;;;6.75;100.00;101303.16;4908058;29;20055;-77
2022/10/10 05:48:50;;;;;;;8.60;5.65;;;;;;;6.75;100.00;101290.03;4932658;29;20182;-77
2022/10/10 05:51:20;;;;;;;5.10;4.63;;;;;;;6.77;100.00;101291.84;4927165;29;20055;-77
2022/10/10 05:53:48;;;;;;;6.95;5.60;;;;;;;6.79;100.00;101295.38;4919770;29;20558;-78
2022/10/10 05:56:16;;;;;;;8.23;5.47;;;;;;;6.79;100.00;101289.28;4897566;29;20048;-78
2022/10/10 05:58:45;;;;;;;6.00;4.85;;;;;;;6.80;100.00;101293.66;4921555;29;20641;-77
2022/10/10 06:01:13;;;;;;;13.05;5.75;;;;;;;6.81;100.00;101292.81;4919827;29;20032;-78
2022/10/10 06:03:42;;;;;;;5.85;5.13;;;;;;;6.82;100.00;101295.47;4929250;29;20063;-78
2022/10/10 06:06:10;;;;;;;6.53;4.70;;;;;;;6.82;100.00;101287.63;4926694;29;20056;-78
2022/10/10 06:08:38;;;;;;;10.60;5.53;;;;;;;6.84;100.00;101292.88;4916001;29;20389;-78
2022/10/10 06:11:07;;;;;;;7.47;5.10;;;;;;;6.86;100.00;101299.03;4887157;29;20051;-78
2022/10/10 06:13:36;;;;;;;10.23;5.45;;;;;;;6.88;100.00;101288.59;4919526;29;20274;-77
2022/10/10 06:16:05;;;;;;;10.07;5.45;;;;;;;6.90;100.00;101292.13;4914246;29;20059;-78
2022/10/10 06:18:33;;;;;;;7.25;5.60;;;;;;;6.93;100.00;101287.00;4918795;29;20078;-77
2022/10/10 06:21:05;;;;;;;10.07;5.68;;;;;;;6.96;100.00;101287.97;4922665;29;20051;-78
2022/10/10 06:23:34;;;;;;;5.85;5.00;;;;;;;6.96;100.00;101285.34;4912243;29;20699;-78
2022/10/10 06:26:03;;;;;;;7.35;5.07;;;;;;;6.98;100.00;101286.25;4921075;29;20039;-77
2022/10/10 06:28:32;;;;;;;8.18;5.18;;;;;;;6.99;100.00;101284.50;4869237;29;20243;-78
2022/10/10 06:31:02;;;;;;;9.07;5.38;;;;;;;7.01;100.00;101283.72;4922402;29;20512;-77
2022/10/10 06:33:31;;;;;;;;;;;;;;;7.02;100.00;101288.09;4924449;29;20754;-77
2022/10/10 06:36:05;;;;;;;6.60;5.45;;;;;;;7.05;100.00;101292.56;4923888;29;19923;-76
2022/10/10 06:38:39;;;;;;;8.75;5.90;;;;;;;7.08;100.00;101300.47;4898075;29;20043;-77
2022/10/10 06:41:07;;;;;;;11.43;5.93;;;;;;;7.11;100.00;101297.06;4916587;29;20044;-77
2022/10/10 06:43:36;;;;;;;9.85;5.40;;;;;;;7.13;100.00;101300.59;4890889;28;20473;-77
2022/10/10 06:46:05;;;;;;;20.67;6.30;;;;;;;7.16;100.00;101282.31;4918985;29;20517;-77
2022/10/10 06:48:34;;;;;;;10.18;5.68;;;;;;;7.20;100.00;101298.16;4933141;28;20063;-77
2022/10/10 06:51:11;;;;;;;8.68;5.50;;;;;;;7.25;100.00;101295.63;4926300;29;20048;-78
2022/10/10 06:53:40;;;;;;;8.50;6.15;;;;;;;7.26;100.00;101286.94;4911452;29;20070;-77
2022/10/10 06:56:16;;;;;;;9.38;5.53;;;;;;;7.30;100.00;101301.88;4911835;29;20405;-77
2022/10/10 06:58:45;;;;;;;11.02;5.35;;;;;;;7.34;100.00;101300.22;4873521;29;20258;-77
2022/10/10 07:01:16;;;;;;;8.68;5.25;;;;;;;7.38;100.00;101291.56;4884434;29;20055;-77
2022/10/10 07:03:44;;;;;;;9.75;5.63;;;;;;;7.42;100.00;101304.78;4925668;29;20043;-78
2022/10/10 07:06:14;;;;;;;7.75;5.63;;;;;;;7.47;100.00;101302.28;4927708;29;20063;-77
2022/10/10 07:08:42;;;;;;;6.90;6.13;;;;;;;7.52;100.00;101307.63;4920106;29;20055;-77
2022/10/10 07:11:12;;;;;;;12.18;6.47;;;;;;;7.58;100.00;101299.88;4892196;29;20035;-77
2022/10/10 07:13:40;;;;;;;10.77;6.03;;;;;;;7.67;100.00;101297.47;4887702;29;20044;-77
2022/10/10 07:16:09;;;;;;;9.00;6.47;;;;;;;7.74;100.00;101303.75;4917541;29;20043;-77
2022/10/10 07:18:37;;;;;;;9.60;6.03;;;;;;;7.78;100.00;101301.22;4925042;29;20405;-77
2022/10/10 07:21:06;;;;;;;6.55;5.90;;;;;;;7.86;100.00;101300.50;4910874;29;20397;-77
2022/10/10 07:23:35;;;;;;;10.93;6.72;;;;;;;7.93;100.00;101305.91;4903728;29;20044;-77
2022/10/10 07:26:09;;;;;;;11.35;6.45;;;;;;;7.99;100.00;101307.78;4912152;29;20044;-77
2022/10/10 07:28:39;;;;;;;8.07;5.95;;;;;;;8.06;100.00;101308.81;4880430;29;20044;-77
2022/10/10 07:31:09;;;;;;;10.38;6.63;;;;;;;8.16;100.00;101303.75;4902667;29;20039;-77
2022/10/10 07:33:41;;;;;;;9.77;6.05;;;;;;;8.25;100.00;101308.31;4921069;29;20071;-78
2022/10/10 07:36:18;;;;;;;10.25;5.93;;;;;;;8.34;100.00;101305.88;4912802;29;20406;-78
2022/10/10 07:38:51;;;;;;;7.53;5.93;;;;;;;8.41;100.00;101306.88;4876949;29;20286;-78
2022/10/10 07:41:20;;;;;;;9.18;6.15;;;;;;;8.52;100.00;101304.50;4917631;29;20051;-77
2022/10/10 07:43:53;;;;;;;7.80;6.10;;;;;;;8.68;100.00;101301.31;4884698;28;20544;-77
2022/10/10 07:46:21;;;;;;;10.40;5.88;;;;;;;8.87;100.00;101307.78;4922172;29;20047;-78
2022/10/10 07:48:50;;;;;;;12.80;5.45;;;;;;;9.07;100.00;101302.84;4907175;29;20704;-77
2022/10/10 07:51:18;;;;;;;8.10;5.68;;;;;;;9.29;100.00;101306.72;4910259;29;20052;-77
2022/10/10 07:53:46;;;;;;;7.55;5.53;;;;;;;9.58;100.00;101316.78;4907229;29;20505;-78
2022/10/10 07:56:15;;;;;;;10.07;5.80;;;;;;;9.94;100.00;101310.25;4888445;29;20267;-77
2022/10/10 07:58:43;;;;;;;8.18;5.13;;;;;;;10.24;100.00;101306.25;4880553;29;20047;-77
2022/10/10 08:01:12;;;;;;;7.18;5.75;;;;;;;10.44;100.00;101309.16;4910499;29;20517;-77
2022/10/10 08:03:41;;;;;;;7.00;5.22;;;;;;;10.45;100.00;101303.91;4878736;29;20050;-76
2022/10/10 08:06:12;;;;;;;9.18;5.55;;;;;;;10.46;100.00;101308.31;4905578;29;20044;-77
2022/10/10 08:08:41;;;;;;;7.38;5.55;;;;;;;10.47;100.00;101317.09;4924765;29;20043;-77
2022/10/10 08:11:20;;;;;;;6.40;5.15;;;;;;;10.50;100.00;101310.09;4903097;29;20031;-77
2022/10/10 08:13:49;;;;;;;9.35;4.95;;;;;;;10.70;100.00;101312.97;4878226;29;20047;-77
2022/10/10 08:16:18;;;;;;;9.15;5.20;;;;;;;10.94;100.00;101314.03;4924136;29;20052;-79
2022/10/10 08:18:48;;;;;;;6.95;5.05;;;;;;;11.23;100.00;101316.94;4913957;29;20532;-78
2022/10/10 08:21:17;;;;;;;7.43;5.30;;;;;;;11.50;100.00;101320.66;4907108;29;20055;-77
2022/10/10 08:23:45;;;;;;;7.47;4.85;;;;;;;11.68;100.00;101312.88;4907593;29;20051;-77
2022/10/10 08:26:15;;;;;;;6.00;4.97;;;;;;;11.91;100.00;101306.88;4899273;29;20601;-77
2022/10/10 08:28:44;;;;;;;9.57;4.75;;;;;;;12.05;100.00;101309.56;4900438;29;20409;-77
2022/10/10 08:31:16;;;;;;;6.88;4.97;;;;;;;12.08;100.00;101299.91;4867652;29;20086;-77
2022/10/10 08:33:47;;;;;;;9.18;4.90;;;;;;;12.12;100.00;101302.53;4903965;29;20421;-77
2022/10/10 08:36:17;;;;;;;6.32;5.60;;;;;;;12.18;100.00;101306.09;4907782;29;20338;-77
2022/10/10 08:38:46;;;;;;;;;;;;;;;12.18;100.00;101306.09;4933012;29;20059;-77
2022/10/10 08:41:27;;;;;;;8.57;5.43;;;;;;;12.18;100.00;101303.44;4904141;29;19922;-77
2022/10/10 08:44:18;;;;;;;8.23;5.25;;;;;;;12.28;100.00;101299.09;4886377;29;20055;-77
2022/10/10 08:46:58;;;;;;;8.68;5.40;;;;;;;12.40;100.00;101293.84;4914494;29;20056;-77
2022/10/10 08:49:37;;;;;;;6.90;5.10;;;;;;;12.50;100.00;101288.59;4925096;29;20075;-77
2022/10/10 08:52:56;;;;;;;6.97;4.82;;;;;;;12.54;100.00;101293.00;4913248;29;20052;-79
2022/10/10 08:55:30;;;;;;;7.22;5.05;;;;;;;12.47;100.00;101298.25;4877346;29;20043;-78
2022/10/10 08:58:01;;;;;;;7.35;5.35;;;;;;;12.38;100.00;101294.69;4916627;29;20075;-77
2022/10/10 09:00:35;;;;;;;5.82;5.10;;;;;;;12.33;100.00;101292.06;4877180;29;20505;-78
2022/10/10 09:03:18;;;;;;;7.97;5.22;;;;;;;12.35;100.00;101295.59;4928692;29;20044;-79
2022/10/10 09:06:16;;;;;;;8.30;5.57;;;;;;;12.42;100.00;101292.09;4905795;29;20247;-77
2022/10/10 09:09:00;;;;;;;14.27;5.13;;;;;;;12.47;100.00;101285.03;4913383;29;20433;-77
2022/10/10 09:11:44;;;;;;;7.47;5.60;;;;;;;12.56;100.00;101289.47;4923001;29;20078;-78
2022/10/10 09:14:23;;;;;;;6.25;5.22;;;;;;;12.69;100.00;101285.09;4905607;29;20497;-78
2022/10/10 09:17:16;;;;;;;7.25;5.28;;;;;;;12.75;100.00;101285.09;4902839;29;20405;-77
2022/10/10 09:19:53;;;;;;;13.52;5.70;;;;;;;12.82;100.00;101286.00;4905171;29;20051;-78
2022/10/10 09:22:27;;;;;;;11.95;6.32;;;;;;;12.81;100.00;101282.44;4922607;29;20044;-78
2022/10/10 09:25:26;;;;;;;8.40;5.40;;;;;;;12.86;100.00;101288.63;4889190;29;20051;-78
2022/10/10 09:28:09;;;;;;;7.07;5.32;;;;;;;12.84;100.00;101293.03;4923341;29;20052;-78
2022/10/10 09:30:44;;;;;;;13.38;6.07;;;;;;;12.83;100.00;101285.97;4901096;29;20223;-76
2022/10/10 09:33:31;;;;;;;11.63;6.18;;;;;;;12.88;100.00;101291.28;4893515;29;20505;-77
2022/10/10 09:36:04;;;;;;;7.18;5.88;;;;;;;12.91;100.00;101290.38;4906492;29;20059;-77
2022/10/10 09:38:53;;;;;;;8.20;5.50;;;;;;;12.97;100.00;101293.06;4909181;29;20271;-77
2022/10/10 09:41:34;;;;;;;8.70;5.15;;;;;;;13.04;100.00;101287.78;4927678;29;20048;-76
2022/10/10 09:44:10;;;;;;;7.70;5.32;;;;;;;13.09;100.00;101285.09;4924266;29;20043;-76
2022/10/10 09:46:38;;;;;;;9.23;6.18;;;;;;;13.13;100.00;101286.00;4863268;29;20398;-76
2022/10/10 09:49:14;;;;;;;6.70;5.97;;;;;;;13.20;100.00;101282.47;4898994;29;20047;-77
2022/10/10 09:51:43;;;;;;;12.52;6.30;;;;;;;13.23;100.00;101283.34;4903212;29;20043;-76
2022/10/10 09:54:14;;;;;;;12.57;6.30;;;;;;;13.25;100.00;101284.22;4896667;29;20043;-77
2022/10/10 09:56:55;;;;;;;10.15;6.60;;;;;;;13.23;100.00;101293.94;4900457;29;20248;-76
2022/10/10 09:59:36;;;;;;;8.90;5.53;;;;;;;13.21;100.00;101289.50;4906491;29;20050;-76
2022/10/10 10:02:38;;;;;;;10.30;6.00;;;;;;;13.19;100.00;101286.84;4917576;29;20413;-76
2022/10/10 10:05:22;;;;;;;10.45;6.30;;;;;;;13.19;100.00;101288.63;4904110;29;20056;-76
2022/10/10 10:07:52;;;;;;;8.95;6.20;;;;;;;13.17;100.00;101296.56;4909234;29;20501;-77
2022/10/10 10:10:23;;;;;;;12.67;6.30;;;;;;;13.18;100.00;101298.34;4896405;29;20409;-77
2022/10/10 10:12:53;;;;;;;8.75;5.82;;;;;;;13.23;100.00;101312.47;4926952;29;20660;-77
2022/10/10 10:15:28;;;;;;;11.73;6.53;;;;;;;13.26;100.00;101314.22;4886878;29;20409;-76
2022/10/10 10:18:23;;;;;;;8.35;5.88;;;;;;;13.32;100.00;101311.59;4925758;29;20048;-76
2022/10/10 10:21:09;;;;;;;9.20;6.20;;;;;;;13.39;100.00;101312.47;4906672;29;20043;-76
2022/10/10 10:23:48;;;;;;;10.27;5.90;;;;;;;13.45;100.00;101312.47;4916364;29;20222;-76
2022/10/10 10:26:39;;;;;;;9.95;6.03;;;;;;;13.54;100.00;101304.50;4923658;29;20070;-77
2022/10/10 10:29:26;;;;;;;;;;;;;;;13.64;100.00;101315.97;4916787;29;20060;-76
2022/10/10 10:32:07;;;;;;;10.93;5.75;;;;;;;13.74;100.00;101324.75;4911013;29;19923;-76
2022/10/10 10:34:56;;;;;;;8.27;6.70;;;;;;;13.80;100.00;101315.06;4878451;29;20060;-77
2022/10/10 10:37:32;;;;;;;13.32;6.53;;;;;;;13.87;100.00;101317.69;4901924;29;20528;-77
2022/10/10 10:40:28;;;;;;;9.63;5.45;;;;;;;13.95;100.00;101314.13;4910104;29;20071;-77
2022/10/10 10:43:18;;;;;;;10.73;6.18;;;;;;;14.00;100.00;101317.63;4908921;29;20040;-76
2022/10/10 10:46:04;;;;;;;12.50;6.53;;;;;;;14.04;100.00;101321.16;4906450;29;20183;-78
2022/10/10 10:48:58;;;;;;;9.63;5.75;;;;;;;14.09;100.00;101323.78;4896726;29;20039;-76
2022/10/10 10:51:52;;;;;;;10.38;6.00;;;;;;;14.16;100.00;101322.91;4891135;29;20051;-77
2022/10/10 10:54:46;;;;;;;8.27;6.03;;;;;;;14.19;100.00;101325.50;4919383;29;20047;-77
2022/10/10 10:57:30;;;;;;;13.27;6.07;;;;;;;14.28;100.00;101319.31;4910088;29;20047;-77
2022/10/10 11:00:17;;;;;;;12.18;6.22;;;;;;;14.42;100.00;101321.00;4920107;29;20059;-77
2022/10/10 11:03:21;;;;;;;9.32;6.15;;;;;;;14.48;100.00;101317.44;4887349;29;20063;-77
2022/10/10 11:06:34;;;;;;;9.35;5.57;;;;;;;14.54;100.00;101316.53;4889928;29;20371;-77
2022/10/10 11:09:18;;;;;;;8.63;5.57;;;;;;;14.71;100.00;101306.72;4904491;29;20047;-76
2022/10/10 11:12:37;;;;;;;8.35;6.45;;;;;;;14.87;100.00;101309.25;4914108;29;20052;-76
2022/10/10 11:15:15;;;;;;;9.13;5.50;;;;;;;14.94;100.00;101300.38;4929343;29;20040;-76
2022/10/10 11:17:58;;;;;;;7.18;5.63;;;;;;;14.95;100.00;101297.72;4898076;29;20495;-76
2022/10/10 11:20:41;;;;;;;9.63;5.38;;;;;;;15.02;100.00;101287.91;4906956;29;20505;-76
2022/10/10 11:23:16;;;;;;;6.45;5.25;;;;;;;15.10;100.00;101301.13;4873088;29;20055;-77
2022/10/10 11:26:09;;;;;;;11.27;4.88;;;;;;;15.19;100.00;101295.72;4902692;29;20036;-77
2022/10/10 11:28:44;;;;;;;7.07;4.78;;;;;;;15.20;100.00;101300.16;4906608;29;20040;-77
2022/10/10 11:31:25;;;;;;;9.77;4.85;;;;;;;15.21;100.00;101315.19;4927243;29;20406;-77
2022/10/10 11:34:01;;;;;;;8.00;5.05;;;;;;;15.22;100.00;101311.63;4919385;29;20046;-76
2022/10/10 11:36:33;;;;;;;6.78;4.25;;;;;;;15.21;100.00;101320.47;4907127;29;20059;-76
2022/10/10 11:39:22;;;;;;;9.68;4.72;;;;;;;15.17;100.00;101306.34;4869153;29;20051;-77
2022/10/10 11:42:01;;;;;;;7.32;4.97;;;;;;;15.10;100.00;101301.13;4895717;29;20051;-76
2022/10/10 11:44:43;;;;;;;8.70;5.00;;;;;;;15.05;100.00;101311.78;4919029;29;20047;-75
2022/10/10 11:47:30;;;;;;;9.70;4.95;;;;;;;14.98;100.00;101318.88;4864954;29;20059;-76
2022/10/10 11:50:01;;;;;;;7.50;5.15;;;;;;;14.89;100.00;101318.09;4918648;28;20405;-76
2022/10/10 11:52:30;;;;;;;8.75;4.72;;;;;;;14.79;100.00;101319.94;4899997;29;20059;-75